createdAt,value
2023-11-23T19:01:09.870Z,19.15
2023-11-23T19:03:53.246Z,18.02
2023-11-23T19:06:35.652Z,21.55
2023-11-23T19:09:18.312Z,18.38
2023-11-23T19:12:00.712Z,25.05
2023-11-23T19:14:43.680Z,20.63
2023-11-23T19:17:27.018Z,19.08
2023-11-23T19:20:11.220Z,19.52
2023-11-23T19:22:53.709Z,18.25
2023-11-23T19:25:36.702Z,17.65
2023-11-23T19:28:19.201Z,16.42
2023-11-23T19:31:06.472Z,17.67
2023-11-23T19:33:50.785Z,16.02
2023-11-23T19:36:35.192Z,16.42
2023-11-23T19:39:20.058Z,16.17
2023-11-23T19:42:03.863Z,15.73
2023-11-23T19:44:47.203Z,15.73
2023-11-23T19:47:30.866Z,14.18
2023-11-23T19:50:13.716Z,12.95
2023-11-23T19:52:58.094Z,14.88
2023-11-23T19:55:40.403Z,14.25
2023-11-23T19:58:23.224Z,15.48
2023-11-23T20:01:05.916Z,12.65
2023-11-23T20:03:48.627Z,15.20
2023-11-23T20:06:31.005Z,14.38
2023-11-23T20:09:14.622Z,15.95
2023-11-23T20:12:00.411Z,18.15
2023-11-23T20:14:43.106Z,14.77
2023-11-23T20:17:26.818Z,14.00
2023-11-23T20:20:11.420Z,13.98
2023-11-23T20:22:53.762Z,15.10
2023-11-23T20:25:36.343Z,12.25
2023-11-23T20:28:18.739Z,15.55
2023-11-23T20:31:01.720Z,12.65
2023-11-23T20:33:44.016Z,13.60
2023-11-23T20:36:26.724Z,12.40
2023-11-23T20:39:10.591Z,13.68
2023-11-23T20:41:54.127Z,14.10
2023-11-23T20:44:36.411Z,12.45
2023-11-23T20:47:20.171Z,16.05
2023-11-23T20:50:02.664Z,14.30
2023-11-23T20:52:45.272Z,12.75
2023-11-23T20:55:27.867Z,12.98
2023-11-23T20:58:11.495Z,11.18
2023-11-23T21:00:54.297Z,11.55
2023-11-23T21:03:37.255Z,11.10
2023-11-23T21:06:23.433Z,11.85
2023-11-23T21:09:09.449Z,12.25
2023-11-23T21:11:55.400Z,11.27
2023-11-23T21:14:38.203Z,12.20
2023-11-23T21:17:20.975Z,12.75
2023-11-23T21:20:09.811Z,14.13
2023-11-23T21:22:52.203Z,13.63
2023-11-23T21:25:36.512Z,15.30
2023-11-23T21:28:20.430Z,7.10
2023-11-23T21:31:03.364Z,2.08
2023-11-23T21:33:45.947Z,2.65
2023-11-23T21:36:28.702Z,2.35
2023-11-23T21:39:12.785Z,2.10
2023-11-23T21:41:55.512Z,3.08
2023-11-23T21:44:40.832Z,4.05
2023-11-23T21:47:23.578Z,2.50
2023-11-23T21:50:07.887Z,1.88
2023-11-23T21:52:52.695Z,2.85
2023-11-23T21:55:38.590Z,3.50
2023-11-23T21:58:21.495Z,2.70
2023-11-23T22:01:03.832Z,1.95
2023-11-23T22:03:50.763Z,2.05
2023-11-23T22:06:34.132Z,2.80
2023-11-23T22:09:17.163Z,3.22
2023-11-23T22:11:59.989Z,4.65
2023-11-23T22:14:42.544Z,3.85
2023-11-23T22:17:26.238Z,6.20
2023-11-23T22:20:09.629Z,5.40
2023-11-23T22:22:52.246Z,5.63
2023-11-23T22:25:35.261Z,3.55
2023-11-23T22:28:18.216Z,2.10
2023-11-23T22:31:02.666Z,3.58
2023-11-23T22:33:47.206Z,3.17
2023-11-23T22:36:30.811Z,2.95
2023-11-23T22:39:14.751Z,1.77
2023-11-23T22:41:57.668Z,3.10
2023-11-23T22:44:40.127Z,3.67
2023-11-23T22:47:22.893Z,3.10
2023-11-23T22:50:07.200Z,2.35
2023-11-23T22:52:49.753Z,1.88
2023-11-23T22:55:32.040Z,1.95
2023-11-23T22:58:14.559Z,2.35
2023-11-23T23:00:56.983Z,1.10
2023-11-23T23:03:41.168Z,1.60
2023-11-23T23:06:23.526Z,1.08
2023-11-23T23:09:09.097Z,1.20
2023-11-23T23:11:51.774Z,1.00
2023-11-23T23:14:34.654Z,1.60
2023-11-23T23:17:17.825Z,1.40
2023-11-23T23:20:01.091Z,1.10
2023-11-23T23:22:43.372Z,1.15
2023-11-23T23:25:25.989Z,1.00
2023-11-23T23:28:18.172Z,1.20
2023-11-23T23:31:04.918Z,1.35
2023-11-23T23:33:47.204Z,1.70
2023-11-23T23:36:29.805Z,1.98
2023-11-23T23:39:12.062Z,1.40
2023-11-23T23:41:55.141Z,2.75
2023-11-23T23:44:37.488Z,6.10
2023-11-23T23:47:20.167Z,7.97
2023-11-23T23:50:05.575Z,3.40
2023-11-23T23:52:48.188Z,1.50
2023-11-23T23:55:30.453Z,1.33
2023-11-23T23:58:13.250Z,1.20
